N629BC KOKC-
Flight info
| Callsign | N629BC |
|---|---|
| Flight time | N/A |
| Altitude | VFR |
| Route | NORTH |
| Aircraft | R66/L-DOV/C |
Departure
| Time | 2026-04-24 19:14 |
|---|---|
| Airport | OKC Will Rogers World Airport (KOKC) |
Arrival
| Time | N/A |
|---|---|
| Airport | - |
| Time | Latitude | Longitude | Altitude | Speed | Heading |
|---|---|---|---|---|---|
| 2026-04-24 19:08 | 35.40142 | -97.60333 | 1287 ft | 0 kts | 283° |
| 2026-04-24 19:11 | 35.40145 | -97.60335 | 1300 ft | 2 kts | 338° |
| 2026-04-24 19:11 | 35.40156 | -97.60340 | 1310 ft | 9 kts | 352° |
| 2026-04-24 19:11 | 35.40325 | -97.60342 | 1360 ft | 37 kts | 12° |
| 2026-04-24 19:11 | 35.40627 | -97.60279 | 1452 ft | 52 kts | 18° |
| 2026-04-24 19:12 | 35.41024 | -97.60153 | 1539 ft | 63 kts | 18° |
| 2026-04-24 19:12 | 35.41472 | -97.60004 | 1659 ft | 72 kts | 10° |
| 2026-04-24 19:12 | 35.42000 | -97.59884 | 1735 ft | 82 kts | 10° |
| 2026-04-24 19:12 | 35.42595 | -97.59827 | 1746 ft | 89 kts | 4° |
| 2026-04-24 19:13 | 35.42890 | -97.59806 | 1802 ft | 87 kts | 2° |
| 2026-04-24 19:13 | 35.43046 | -97.59788 | 1820 ft | 89 kts | 6° |
| 2026-04-24 19:13 | 35.43676 | -97.59639 | 1842 ft | 93 kts | 12° |
| 2026-04-24 19:14 | 35.44310 | -97.59552 | 1884 ft | 94 kts | 6° |
| 2026-04-24 19:14 | 35.44979 | -97.59511 | 1927 ft | 96 kts | 7° |
| 2026-04-24 19:14 | 35.45645 | -97.59455 | 1954 ft | 97 kts | 6° |
| 2026-04-24 19:14 | 35.46353 | -97.59402 | 1983 ft | 104 kts | 4° |
| 2026-04-24 19:15 | 35.47070 | -97.59386 | 1999 ft | 102 kts | 3° |
| 2026-04-24 19:15 | 35.47784 | -97.59316 | 1923 ft | 105 kts | 22° |
| 2026-04-24 19:15 | 35.48161 | -97.58602 | 1927 ft | 109 kts | 80° |
| 2026-04-24 19:15 | 35.48088 | -97.57669 | 1959 ft | 108 kts | 94° |
| 2026-04-24 19:16 | 35.47667 | -97.55929 | 2008 ft | 112 kts | 114° |
| 2026-04-24 19:16 | 35.47189 | -97.55148 | 1989 ft | 116 kts | 119° |
| 2026-04-24 19:16 | 35.46662 | -97.54436 | 2059 ft | 111 kts | 126° |
| 2026-04-24 19:17 | 35.46055 | -97.53792 | 2012 ft | 119 kts | 134° |
| 2026-04-24 19:17 | 35.45376 | -97.53193 | 1949 ft | 124 kts | 137° |
| 2026-04-24 19:17 | 35.44603 | -97.52747 | 2015 ft | 119 kts | 144° |
| 2026-04-24 19:17 | 35.44111 | -97.52005 | 1886 ft | 117 kts | 90° |
| 2026-04-24 19:18 | 35.44390 | -97.51165 | 1897 ft | 108 kts | 33° |
| 2026-04-24 19:18 | 35.45130 | -97.51093 | 1846 ft | 119 kts | 339° |
| 2026-04-24 19:18 | 35.45697 | -97.51859 | 1747 ft | 131 kts | 285° |
| 2026-04-24 19:18 | 35.45464 | -97.52841 | 1637 ft | 119 kts | 211° |
| 2026-04-24 19:19 | 35.44821 | -97.52818 | 1555 ft | 84 kts | 129° |
| 2026-04-24 19:19 | 35.44576 | -97.52355 | 1431 ft | 51 kts | 86° |
| 2026-04-24 19:19 | 35.44562 | -97.52083 | 1317 ft | 16 kts | 63° |
| 2026-04-24 19:19 | 35.44563 | -97.52031 | 1197 ft | 2 kts | 95° |
| 2026-04-24 19:20 | 35.44560 | -97.52027 | 1188 ft | 0 kts | 97° |
| 2026-04-24 19:20 | 35.44557 | -97.52023 | 1185 ft | 1 kts | 93° |
| 2026-04-24 19:20 | 35.44579 | -97.52063 | 1211 ft | 31 kts | 304° |
| 2026-04-24 19:21 | 35.44743 | -97.52177 | 1345 ft | 43 kts | 17° |
| 2026-04-24 19:21 | 35.45107 | -97.52469 | 1415 ft | 85 kts | 311° |
| 2026-04-24 19:21 | 35.44989 | -97.53043 | 1280 ft | 58 kts | 197° |
| 2026-04-24 19:21 | 35.44785 | -97.53186 | 1192 ft | 0 kts | 194° |
| 2026-04-24 19:23 | 35.44993 | -97.53078 | 1194 ft | 0 kts | 360° |
| 2026-04-24 19:24 | 35.44996 | -97.53077 | 1194 ft | 0 kts | 3° |
| 2026-04-24 19:24 | 35.44999 | -97.53072 | 1199 ft | 1 kts | 4° |
| 2026-04-24 19:25 | 35.44996 | -97.53065 | 1206 ft | 3 kts | 5° |
| 2026-04-24 19:25 | 35.45004 | -97.53087 | 1218 ft | 9 kts | 295° |
| 2026-04-24 19:25 | 35.45025 | -97.53171 | 1245 ft | 22 kts | 294° |
| 2026-04-24 19:25 | 35.45133 | -97.53452 | 1313 ft | 48 kts | 313° |
| 2026-04-24 19:26 | 35.45407 | -97.53728 | 1399 ft | 57 kts | 333° |
| 2026-04-24 19:26 | 35.45788 | -97.53976 | 1527 ft | 69 kts | 342° |
| 2026-04-24 19:26 | 35.46249 | -97.54287 | 1629 ft | 78 kts | 329° |
| 2026-04-24 19:26 | 35.46738 | -97.54638 | 1674 ft | 87 kts | 329° |
| 2026-04-24 19:27 | 35.47262 | -97.55067 | 1714 ft | 89 kts | 328° |
| 2026-04-24 19:27 | 35.47780 | -97.55474 | 1796 ft | 94 kts | 326° |
| 2026-04-24 19:27 | 35.48303 | -97.56033 | 1784 ft | 101 kts | 324° |
| 2026-04-24 19:27 | 35.48866 | -97.56435 | 1906 ft | 92 kts | 333° |
| 2026-04-24 19:28 | 35.49452 | -97.56786 | 1983 ft | 99 kts | 330° |
| 2026-04-24 19:28 | 35.50053 | -97.57325 | 1950 ft | 113 kts | 316° |
| 2026-04-24 19:28 | 35.50643 | -97.58000 | 1934 ft | 115 kts | 317° |
| 2026-04-24 19:28 | 35.51250 | -97.58650 | 1901 ft | 115 kts | 322° |
| 2026-04-24 19:29 | 35.52506 | -97.59803 | 1865 ft | 118 kts | 323° |
| 2026-04-24 19:29 | 35.53100 | -97.60475 | 1903 ft | 116 kts | 315° |
| 2026-04-24 19:29 | 35.53631 | -97.61243 | 1840 ft | 119 kts | 308° |
| 2026-04-24 19:30 | 35.54114 | -97.62029 | 1810 ft | 108 kts | 304° |
| 2026-04-24 19:30 | 35.54434 | -97.62821 | 1777 ft | 101 kts | 292° |
| 2026-04-24 19:30 | 35.54572 | -97.63642 | 1694 ft | 95 kts | 267° |
| 2026-04-24 19:30 | 35.54319 | -97.64269 | 1514 ft | 74 kts | 195° |
| 2026-04-24 19:31 | 35.53910 | -97.64313 | 1422 ft | 46 kts | 141° |
| 2026-04-24 19:31 | 35.53716 | -97.64281 | 1313 ft | 8 kts | 174° |
| 2026-04-24 19:31 | 35.53681 | -97.64282 | 1311 ft | 3 kts | 175° |
| 2026-04-24 19:31 | 35.53673 | -97.64283 | 1305 ft | 1 kts | 180° |
| 2026-04-24 19:32 | 35.53673 | -97.64282 | 1305 ft | 0 kts | 182° |